22 maggio 2022

Tempo Codice Tempo metereologico Temp. Vista Nuvole Vento METAR/SPECI
08:20
V
14 °C 10 km+ - Var   Var 2 kt METAR EDLN 220620Z VRB02KT 9999 SCT049 14/11 Q1017
07:50
V
12 °C 10 km+ - Var   Var 1 kt METAR EDLN 220550Z VRB01KT 9999 SCT048 12/11 Q1017
07:20
V
11 °C 10 km+ 5.000 ft Var   Var 1 kt METAR EDLN 220520Z AUTO VRB01KT 9999 // BKN050/// 11/10 Q1017
06:50
V
9 °C 10 km+ - Var   000° 0 kt METAR EDLN 220450Z AUTO 00000KT 9999 // SCT054/// 09/09 Q1017
06:20
V
8 °C 10 km+ - 300°   300° 1 kt METAR EDLN 220420Z AUTO 30001KT 9999 // FEW053/// 08/08 Q1017
05:50
V
8 °C 10 km+ - Var   Var 1 kt METAR EDLN 220350Z AUTO VRB01KT 9999 // FEW054/// 08/08 Q1017
05:20
V
9 °C 10 km+ 5.200 ft 330°   330° 1 kt METAR EDLN 220320Z AUTO 33001KT 9999 // BKN052/// 09/08 Q1018
04:50
V
8 °C 10 km+ - 310°   310° 1 kt METAR EDLN 220250Z AUTO 31001KT 9999 // FEW056/// 08/08 Q1018
04:20
V
9 °C 10 km+ - Var   Var 1 kt METAR EDLN 220220Z AUTO VRB01KT 9999 // SCT055/// 09/09 Q1018
03:50
V
9 °C 10 km+ 5.300 ft 320°   320° 2 kt METAR EDLN 220150Z AUTO 32002KT 9999 // BKN053/// 09/09 Q1018
03:20
V
9 °C 10 km+ - 320°   320° 2 kt METAR EDLN 220120Z AUTO 32002KT 9999 // FEW052/// 09/08 Q1018
02:50
V
10 °C 10 km+ - 320°   320° 2 kt METAR EDLN 220050Z AUTO 32002KT 9999 // FEW058/// SCT220/// 10/09 Q1019
02:20
V
10 °C 10 km+ 21.000 ft 320°   320° 2 kt METAR EDLN 220020Z AUTO 32002KT 9999 // SCT059/// OVC210/// 10/09 Q1019
01:50
V
10 °C 10 km+ 20.000 ft Var   000° 0 kt METAR EDLN 212350Z AUTO 00000KT 9999 // FEW053/// SCT061/// BKN200/// 10/09 Q1019
01:20
V
10 °C 10 km+ 5.800 ft Var   000° 0 kt METAR EDLN 212320Z AUTO 00000KT 9999 // BKN058/// 10/09 Q1019
00:50
V
10 °C 10 km+ - Var   000° 0 kt METAR EDLN 212250Z AUTO 00000KT 9999 // FEW057/// 10/09 Q1019
00:20
V
10 °C 10 km+ - Var   000° 0 kt METAR EDLN 212220Z AUTO 00000KT 9999 // NCD 10/09 Q1019

21 maggio 2022

Tempo Codice Tempo metereologico Temp. Vista Nuvole Vento METAR/SPECI
23:50
V
11 °C 10 km+ - 360°   360° 2 kt METAR EDLN 212150Z AUTO 36002KT 9999 // NCD 11/10 Q1019
23:20
V
11 °C 10 km+ - 330°   330° 2 kt METAR EDLN 212120Z AUTO 33002KT 9999 // FEW056/// 11/10 Q1020
22:50
V
12 °C 10 km+ - 340°   340° 2 kt METAR EDLN 212050Z AUTO 34002KT 9999 // FEW056/// 12/10 Q1020
22:20
V
12 °C 10 km+ - 350°   350° 2 kt METAR EDLN 212020Z AUTO 35002KT 9999 // NCD 12/10 Q1020
21:50
V
14 °C 10 km+ - 340°   340° 3 kt METAR EDLN 211950Z AUTO 34003KT 9999 // SCT120/// 14/10 Q1020
21:20
V
16 °C 10 km+ 12.000 ft 340°   340° 4 kt METAR EDLN 211920Z AUTO 34004KT 290V360 9999 // BKN120/// 16/10 Q1019
20:50
V
17 °C 10 km+ 13.000 ft 320°   320° 4 kt METAR EDLN 211850Z AUTO 32004KT 9999 // BKN130/// 17/10 Q1020
20:20
V
17 °C 10 km+ - Var   Var 2 kt METAR EDLN 211820Z VRB02KT CAVOK 17/09 Q1020
19:50
V
18 °C 10 km+ - 260°   260° 3 kt METAR EDLN 211750Z 26003KT 210V310 CAVOK 18/08 Q1019
19:20
V
18 °C 10 km+ - 290°   290° 6 kt METAR EDLN 211720Z 29006KT 240V310 CAVOK 18/08 Q1020
18:50
V
19 °C 10 km+ - 300°   300° 6 kt METAR EDLN 211650Z 30006KT 250V330 CAVOK 19/08 Q1020
18:20
V
19 °C 10 km+ - 280°   280° 4 kt METAR EDLN 211620Z 28004KT 220V330 CAVOK 19/09 Q1020
17:50
V
19 °C 10 km+ 4.900 ft 260°   260° 5 kt METAR EDLN 211550Z 26005KT 210V330 9999 BKN049 19/08 Q1020
17:20
V
19 °C 10 km+ - 290°   290° 8 kt METAR EDLN 211520Z 29008KT 250V320 9999 FEW049 19/08 Q1021
16:50
V
19 °C 10 km+ - 260°   260° 6 kt METAR EDLN 211450Z 26006KT 190V340 CAVOK 19/08 Q1021
16:20
V
19 °C 10 km+ - 250°   250° 6 kt METAR EDLN 211420Z 25006KT 210V010 9999 FEW048 19/09 Q1021
15:50
V
20 °C 10 km+ - 260°   260° 6 kt METAR EDLN 211350Z 26006KT 170V310 9999 SCT046 20/09 Q1021
15:20
V
19 °C 10 km+ - 260°   260° 6 kt METAR EDLN 211320Z 26006KT 200V320 9999 SCT044 19/09 Q1021
14:50
V
18 °C 10 km+ - 250°   250° 5 kt METAR EDLN 211250Z 25005KT 200V300 9999 FEW043 18/09 Q1021
14:20
V
18 °C 10 km+ - 260°   260° 7 kt METAR EDLN 211220Z 26007KT 200V310 9999 SCT041 18/09 Q1022
13:50
V
17 °C 10 km+ 4.700 ft 260°   260° 6 kt METAR EDLN 211150Z 26006KT 210V300 9999 FEW040 BKN047 17/09 Q1022
13:20
V
17 °C 10 km+ - 260°   260° 7 kt METAR EDLN 211120Z 26007KT 210V320 9999 SCT037 17/09 Q1022
12:50
V
17 °C 10 km+ - 240°   240° 8 kt METAR EDLN 211050Z 24008KT 200V290 9999 SCT033 17/10 Q1022
12:20
V
16 °C 10 km+ - 260°   260° 5 kt METAR EDLN 211020Z 26005KT 200V320 9999 FEW026 SCT037 16/10 Q1022
11:50
V
15 °C 10 km+ 3.500 ft 240°   240° 7 kt METAR EDLN 210950Z 24007KT 200V280 9999 FEW028 BKN035 15/10 Q1022
11:20
V
15 °C 10 km+ 3.900 ft 250°   250° 7 kt METAR EDLN 210920Z 25007KT 200V310 9999 FEW026 BKN039 15/09 Q1022
10:50
M
14 °C 10 km+ 2.600 ft 250°   250° 6 kt METAR EDLN 210850Z 25006KT 190V300 9999 FEW023 BKN026 14/10 Q1022
10:20
M
14 °C 10 km+ 2.300 ft 250°   250° 7 kt METAR EDLN 210820Z 25007KT 200V290 9999 FEW020 BKN023 14/09 Q1022
09:50
M
13 °C 10 km+ 1.700 ft 240°   240° 8 kt METAR EDLN 210750Z 24008KT 210V280 9999 BKN017 OVC023 13/10 Q1022
09:20
M
13 °C 10 km+ 2.100 ft 230°   230° 8 kt METAR EDLN 210720Z 23008KT 200V280 9999 SCT018 OVC021 13/10 Q1021
08:50
M
13 °C 10 km+ 2.000 ft 230°   230° 7 kt METAR EDLN 210650Z 23007KT 190V280 9999 OVC020 13/10 Q1021
08:20
M
12 °C 10 km+ 1.900 ft 230°   230° 8 kt METAR EDLN 210620Z 23008KT 200V260 9999 OVC019 12/09 Q1021
07:50
M
12 °C 10 km+ 2.200 ft 240°   240° 6 kt METAR EDLN 210550Z 24006KT 200V280 9999 SCT018 BKN022 12/09 Q1021
07:20
M
12 °C 10 km+ 2.400 ft 230°   230° 7 kt METAR EDLN 210520Z AUTO 23007KT 200V280 9999 // FEW018/// BKN024/// 12/09 Q1021
06:50
M
12 °C 10 km+ 1.800 ft 240°   240° 6 kt METAR EDLN 210450Z AUTO 24006KT 190V290 9999 // OVC018/// 12/09 Q1021
06:20
M
12 °C 10 km+ 1.700 ft 240°   240° 6 kt METAR EDLN 210420Z AUTO 24006KT 190V290 9999 // OVC017/// 12/09 Q1020
05:50
M
12 °C 10 km+ 1.700 ft 230°   230° 7 kt METAR EDLN 210350Z AUTO 23007KT 190V280 9999 // OVC017/// 12/09 Q1020
05:20
M
12 °C 10 km+ 1.800 ft 240°   240° 6 kt METAR EDLN 210320Z AUTO 24006KT 180V280 9999 // OVC018/// 12/09 Q1020
04:50
M
12 °C 10 km+ 2.000 ft 230°   230° 6 kt METAR EDLN 210250Z AUTO 23006KT 180V300 9999 // BKN020/// 12/09 Q1020
04:20
V
12 °C 10 km+ - 230°   230° 6 kt METAR EDLN 210220Z AUTO 23006KT 190V280 9999 // NCD 12/09 Q1020
03:50
V
12 °C 10 km+ - 230°   230° 7 kt METAR EDLN 210150Z AUTO 23007KT 200V280 9999 // NCD 12/09 Q1020
03:20
V
12 °C 10 km+ - 230°   230° 5 kt METAR EDLN 210120Z AUTO 23005KT 180V290 9999 // FEW067/// 12/09 Q1020
02:50
V
12 °C 10 km+ - 230°   230° 5 kt METAR EDLN 210050Z AUTO 23005KT 190V270 9999 // NCD 12/09 Q1020
02:20
V
12 °C 10 km+ - 230°   230° 5 kt METAR EDLN 210020Z AUTO 23005KT 200V280 9999 // NCD 12/09 Q1020
01:50
V
11 °C 10 km+ - 230°   230° 4 kt METAR EDLN 202350Z AUTO 23004KT 180V270 9999 // NCD 11/09 Q1020
01:20
V
12 °C 10 km+ - 240°   240° 3 kt METAR EDLN 202320Z AUTO 24003KT 200V290 9999 // NCD 12/09 Q1020
00:50
V
12 °C 10 km+ - 230°   230° 4 kt METAR EDLN 202250Z AUTO 23004KT 190V270 9999 // NCD 12/09 Q1020
00:20
V
12 °C 10 km+ - 250°   250° 3 kt METAR EDLN 202220Z AUTO 25003KT 200V300 9999 // FEW032/// 12/09 Q1020

20 maggio 2022

Tempo Codice Tempo metereologico Temp. Vista Nuvole Vento METAR/SPECI
23:50
V
13 °C 10 km+ - 260°   260° 4 kt METAR EDLN 202150Z AUTO 26004KT 190V310 9999 // SCT022/// 13/09 Q1020
23:20
V
13 °C 10 km+ 3.400 ft 270°   270° 6 kt METAR EDLN 202120Z AUTO 27006KT 210V310 9999 // FEW025/// BKN034/// 13/09 Q1019
22:50
M
14 °C 10 km+ 2.500 ft 280°   280° 12 kt METAR EDLN 202050Z AUTO 28012KT 230V310 9999 // FEW019/// OVC025/// 14/09 Q1019
22:20
M
14 °C 10 km+ 1.800 ft 260°   260° 5 kt METAR EDLN 202020Z AUTO 26005KT 210V320 9999 // BKN018/// BKN037/// 14/11 Q1019
21:50
V
14 °C 10 km+ 3.400 ft 260°   260° 5 kt METAR EDLN 201950Z AUTO 26005KT 200V310 9999 // FEW019/// SCT026/// BKN034/// 14/11 Q1018
21:20
M
15 °C 10 km+ 1.800 ft 270°   270° 9 kt METAR EDLN 201920Z AUTO 27009KT 210V320 9999 // BKN018/// OVC025/// 15/11 Q1017
20:50
M
15 °C 10 km+ 1.600 ft 280°   280° 10 kt METAR EDLN 201850Z AUTO 28010KT 240V320 9999 // BKN016/// BKN018/// OVC023/// 15/12 Q1017
20:20
M
15 °C 10 km+ 1.700 ft 270°   270° 8 18 kt METAR EDLN 201820Z 27008G18KT 230V310 9999 BKN017 OVC031 15/12 Q1016
19:50
M
16 °C 10 km+ 1.600 ft 270°   270° 9 19 kt METAR EDLN 201750Z 27009G19KT 220V320 9999 BKN016 BKN040 16/13 Q1016
19:20
M
18 °C 10 km+ 1.800 ft 260°   260° 10 20 kt METAR EDLN 201720Z 26010G20KT 210V320 9999 FEW015 BKN018 BKN035 18/15 Q1015
18:50
V
19 °C 10 km+ - 240°   240° 9 21 kt METAR EDLN 201650Z 24009G21KT 200V300 9999 FEW014 SCT018 19/17 Q1014
18:20
V
18 °C 10 km+ - 230°   230° 10 kt METAR EDLN 201620Z 23010KT 190V280 9999 -RA SCT024 18/16 Q1013
17:50
V
19 °C 10 km+ - 240°   240° 10 kt METAR EDLN 201550Z 24010KT 200V300 9999 -SHRA FEW017 SCT021TCU 19/16 Q1014 RERA
17:20
V
21 °C 10 km+ - 240°   240° 3 kt METAR EDLN 201520Z 24003KT 190V300 9999 -RA SCT026 21/18 Q1013
16:50
V
21 °C 10 km+ - 240°   240° 8 kt METAR EDLN 201450Z 24008KT 200V280 9999 -RA NSC 21/17 Q1013
16:20
V
21 °C 10 km+ - 200°   200° 6 kt METAR EDLN 201420Z 20006KT 160V240 CAVOK 21/19 Q1014
15:50
V
21 °C 10 km+ - 180°   180° 6 kt METAR EDLN 201350Z 18006KT 120V210 9999 -RA FEW025 21/18 Q1013
15:20
V
19 °C 10 km+ - 180°   180° 8 kt METAR EDLN 201320Z 18008KT 130V230 9999 -SHRA FEW021 SCT027TCU 19/18 Q1014 RETSRA
14:50
V
21 °C 10 km+ - 140°   140° 6 kt METAR EDLN 201250Z 14006KT 110V170 9999 -RA FEW030 21/18 Q1014
14:20
V
23 °C 10 km+ - 110°   110° 8 kt METAR EDLN 201220Z 11008KT CAVOK 23/18 Q1013
13:50
V
24 °C 10 km+ - 110°   110° 9 kt METAR EDLN 201150Z 11009KT CAVOK 24/18 Q1014
13:20
V
24 °C 10 km+ - 120°   120° 7 kt METAR EDLN 201120Z 12007KT 090V170 9999 FEW023 24/18 Q1015
12:50
V
23 °C 10 km+ - 100°   100° 8 kt METAR EDLN 201050Z 10008KT 070V140 9999 FEW020 23/17 Q1016
12:20
V
22 °C 8 km - 100°   100° 7 kt METAR EDLN 201020Z 10007KT 070V140 8000 SCT020 22/18 Q1017
11:50
V
22 °C 8 km - 100°   100° 6 kt METAR EDLN 200950Z 10006KT 070V180 8000 SCT020 22/17 Q1018
11:20
V
21 °C 8 km - 110°   110° 5 kt METAR EDLN 200920Z 11005KT 060V150 8000 FEW020 21/16 Q1018
10:50
V
20 °C 9 km - 090°   090° 3 kt METAR EDLN 200850Z 09003KT 010V150 9000 FEW020 20/15 Q1019
10:20
V
20 °C 10 km+ - 100°   100° 5 kt METAR EDLN 200820Z 10005KT 070V160 CAVOK 20/15 Q1019
09:50
V
19 °C 10 km+ - 080°   080° 3 kt METAR EDLN 200750Z 08003KT 030V120 CAVOK 19/14 Q1019
09:20
V
18 °C 10 km+ - 070°   070° 4 kt METAR EDLN 200720Z 07004KT CAVOK 18/13 Q1020
08:50
V
17 °C 10 km+ - 060°   060° 5 kt METAR EDLN 200650Z 06005KT 020V090 CAVOK 17/12 Q1020
08:20
V
17 °C 8 km - 080°   080° 5 kt METAR EDLN 200620Z 08005KT 040V110 8000 NSC 17/13 Q1020
07:50
M
16 °C 7 km - 060°   060° 3 kt METAR EDLN 200550Z 06003KT 030V110 7000 NSC 16/14 Q1020
07:20
M
15 °C 5 km 7.100 ft Var   Var 2 kt METAR EDLN 200520Z AUTO VRB02KT 5000 // FEW026/// BKN071/// 15/14 Q1021
06:50
I
14 °C 4,9 km 2.700 ft Var   000° 0 kt METAR EDLN 200450Z AUTO 00000KT 4900 // BKN027/// BKN034/// 14/14 Q1021
Dati più vecchi

Scarica la nostra applicazione

Facile accesso a tutte le previsioni dell'aviazione sul tuo cellulare e tablet.
Con molte caratteristiche non disponibili sul sito web, come il supporto offline e una lista personale di aeroporti.

Noi e le terze parti seguiamo il tuo comportamento in internet sul nostro sito web con i cookie. Se continui, riteniamo che tu sia d'accordo con la nostra politica sui cookie. Per saperne di più